sensor_id;sensor_type;location;lat;lon;timestamp;temperature;humidity
21473;DHT22;10898;48.072;11.682;2023-06-24T00:00:36;17.50;99.90
21473;DHT22;10898;48.072;11.682;2023-06-24T00:02:39;17.50;99.90
21473;DHT22;10898;48.072;11.682;2023-06-24T00:04:45;17.60;99.90
21473;DHT22;10898;48.072;11.682;2023-06-24T00:06:47;17.60;99.90
21473;DHT22;10898;48.072;11.682;2023-06-24T00:08:49;17.50;99.90
21473;DHT22;10898;48.072;11.682;2023-06-24T00:10:51;17.50;99.90
21473;DHT22;10898;48.072;11.682;2023-06-24T00:12:52;17.60;99.90
21473;DHT22;10898;48.072;11.682;2023-06-24T00:14:54;17.50;99.90
21473;DHT22;10898;48.072;11.682;2023-06-24T00:16:56;17.50;99.90
21473;DHT22;10898;48.072;11.682;2023-06-24T00:18:58;17.50;99.90
21473;DHT22;10898;48.072;11.682;2023-06-24T00:21:00;17.50;99.90
21473;DHT22;10898;48.072;11.682;2023-06-24T00:23:02;17.50;99.90
21473;DHT22;10898;48.072;11.682;2023-06-24T00:25:04;17.50;99.90
21473;DHT22;10898;48.072;11.682;2023-06-24T00:27:06;17.50;99.90
21473;DHT22;10898;48.072;11.682;2023-06-24T00:29:08;17.40;99.90
21473;DHT22;10898;48.072;11.682;2023-06-24T00:31:10;17.40;99.90
21473;DHT22;10898;48.072;11.682;2023-06-24T00:33:13;17.40;99.90
21473;DHT22;10898;48.072;11.682;2023-06-24T00:35:15;17.40;99.90
21473;DHT22;10898;48.072;11.682;2023-06-24T00:37:17;17.40;99.90
21473;DHT22;10898;48.072;11.682;2023-06-24T00:39:18;17.40;99.90
21473;DHT22;10898;48.072;11.682;2023-06-24T00:41:20;17.40;99.90
21473;DHT22;10898;48.072;11.682;2023-06-24T00:43:22;17.50;99.90
21473;DHT22;10898;48.072;11.682;2023-06-24T00:45:24;17.40;99.90
21473;DHT22;10898;48.072;11.682;2023-06-24T00:47:26;17.40;99.90
21473;DHT22;10898;48.072;11.682;2023-06-24T00:49:27;17.40;99.90
21473;DHT22;10898;48.072;11.682;2023-06-24T00:51:29;17.40;99.90
21473;DHT22;10898;48.072;11.682;2023-06-24T00:53:32;17.40;99.90
21473;DHT22;10898;48.072;11.682;2023-06-24T00:55:34;17.40;99.90
21473;DHT22;10898;48.072;11.682;2023-06-24T00:57:36;17.40;99.90
21473;DHT22;10898;48.072;11.682;2023-06-24T00:59:39;17.40;99.90
21473;DHT22;10898;48.072;11.682;2023-06-24T01:01:42;17.40;99.90
21473;DHT22;10898;48.072;11.682;2023-06-24T01:03:46;17.40;99.90
21473;DHT22;10898;48.072;11.682;2023-06-24T01:05:48;17.40;99.90
21473;DHT22;10898;48.072;11.682;2023-06-24T01:07:50;17.40;99.90
21473;DHT22;10898;48.072;11.682;2023-06-24T01:09:57;17.40;99.90
21473;DHT22;10898;48.072;11.682;2023-06-24T01:11:59;17.40;99.90
21473;DHT22;10898;48.072;11.682;2023-06-24T01:14:00;17.40;99.90
21473;DHT22;10898;48.072;11.682;2023-06-24T01:16:05;17.30;99.90
21473;DHT22;10898;48.072;11.682;2023-06-24T01:18:13;17.30;99.90
21473;DHT22;10898;48.072;11.682;2023-06-24T01:33:46;17.30;99.90
21473;DHT22;10898;48.072;11.682;2023-06-24T01:35:50;17.30;99.90
21473;DHT22;10898;48.072;11.682;2023-06-24T01:37:53;17.30;99.90
21473;DHT22;10898;48.072;11.682;2023-06-24T01:40:10;17.20;99.90
21473;DHT22;10898;48.072;11.682;2023-06-24T01:42:12;17.20;99.90
21473;DHT22;10898;48.072;11.682;2023-06-24T01:44:16;17.20;99.90
21473;DHT22;10898;48.072;11.682;2023-06-24T01:46:20;17.20;99.90
21473;DHT22;10898;48.072;11.682;2023-06-24T01:48:23;17.20;99.90
21473;DHT22;10898;48.072;11.682;2023-06-24T01:50:26;17.20;99.90
21473;DHT22;10898;48.072;11.682;2023-06-24T01:52:29;17.10;99.90
21473;DHT22;10898;48.072;11.682;2023-06-24T01:54:32;17.20;99.90
21473;DHT22;10898;48.072;11.682;2023-06-24T01:56:35;17.10;99.90
21473;DHT22;10898;48.072;11.682;2023-06-24T01:58:38;17.20;99.90
21473;DHT22;10898;48.072;11.682;2023-06-24T02:00:41;17.10;99.90
21473;DHT22;10898;48.072;11.682;2023-06-24T02:02:43;17.20;99.90
21473;DHT22;10898;48.072;11.682;2023-06-24T02:04:47;17.20;99.90
21473;DHT22;10898;48.072;11.682;2023-06-24T02:06:49;17.20;99.90
21473;DHT22;10898;48.072;11.682;2023-06-24T02:08:52;17.20;99.90
21473;DHT22;10898;48.072;11.682;2023-06-24T02:10:55;17.20;99.90
21473;DHT22;10898;48.072;11.682;2023-06-24T02:12:57;17.20;99.90
21473;DHT22;10898;48.072;11.682;2023-06-24T02:14:59;17.20;99.90
21473;DHT22;10898;48.072;11.682;2023-06-24T02:17:01;17.10;99.90
21473;DHT22;10898;48.072;11.682;2023-06-24T02:19:04;17.10;99.90
21473;DHT22;10898;48.072;11.682;2023-06-24T02:21:07;17.10;99.90
21473;DHT22;10898;48.072;11.682;2023-06-24T02:23:09;17.10;99.90
21473;DHT22;10898;48.072;11.682;2023-06-24T02:25:12;17.10;99.90
21473;DHT22;10898;48.072;11.682;2023-06-24T02:27:14;17.10;99.90
21473;DHT22;10898;48.072;11.682;2023-06-24T02:29:16;17.00;99.90
21473;DHT22;10898;48.072;11.682;2023-06-24T02:31:18;17.00;99.90
21473;DHT22;10898;48.072;11.682;2023-06-24T02:33:20;17.10;99.90
21473;DHT22;10898;48.072;11.682;2023-06-24T02:35:22;17.10;99.90
21473;DHT22;10898;48.072;11.682;2023-06-24T02:37:23;17.00;99.90
21473;DHT22;10898;48.072;11.682;2023-06-24T02:39:25;17.00;99.90
21473;DHT22;10898;48.072;11.682;2023-06-24T02:41:27;17.00;99.90
21473;DHT22;10898;48.072;11.682;2023-06-24T02:43:29;17.10;99.90
21473;DHT22;10898;48.072;11.682;2023-06-24T02:45:30;17.00;99.90
21473;DHT22;10898;48.072;11.682;2023-06-24T02:47:33;17.00;99.90
21473;DHT22;10898;48.072;11.682;2023-06-24T02:49:35;17.00;99.90
21473;DHT22;10898;48.072;11.682;2023-06-24T02:51:38;17.00;99.90
21473;DHT22;10898;48.072;11.682;2023-06-24T02:53:41;17.00;99.90
21473;DHT22;10898;48.072;11.682;2023-06-24T02:55:42;17.00;99.90
21473;DHT22;10898;48.072;11.682;2023-06-24T02:57:45;17.00;99.90
21473;DHT22;10898;48.072;11.682;2023-06-24T02:59:47;17.00;99.90
21473;DHT22;10898;48.072;11.682;2023-06-24T03:01:49;17.00;99.90
21473;DHT22;10898;48.072;11.682;2023-06-24T03:03:55;17.00;99.90
21473;DHT22;10898;48.072;11.682;2023-06-24T03:05:58;17.00;99.90
21473;DHT22;10898;48.072;11.682;2023-06-24T03:08:00;16.90;99.90
21473;DHT22;10898;48.072;11.682;2023-06-24T03:10:02;16.90;99.90
21473;DHT22;10898;48.072;11.682;2023-06-24T03:12:05;16.90;99.90
21473;DHT22;10898;48.072;11.682;2023-06-24T03:14:07;16.90;99.90
21473;DHT22;10898;48.072;11.682;2023-06-24T03:16:09;16.90;99.90
21473;DHT22;10898;48.072;11.682;2023-06-24T03:18:13;16.90;99.90
21473;DHT22;10898;48.072;11.682;2023-06-24T03:20:15;16.90;99.90
21473;DHT22;10898;48.072;11.682;2023-06-24T03:22:17;16.90;99.90
21473;DHT22;10898;48.072;11.682;2023-06-24T03:24:18;16.90;99.90
21473;DHT22;10898;48.072;11.682;2023-06-24T03:26:20;16.90;99.90
21473;DHT22;10898;48.072;11.682;2023-06-24T03:28:22;16.90;99.90
21473;DHT22;10898;48.072;11.682;2023-06-24T03:30:24;16.90;99.90
21473;DHT22;10898;48.072;11.682;2023-06-24T03:32:25;16.90;99.90
21473;DHT22;10898;48.072;11.682;2023-06-24T03:34:27;16.90;99.90
21473;DHT22;10898;48.072;11.682;2023-06-24T03:36:29;16.90;99.90
21473;DHT22;10898;48.072;11.682;2023-06-24T03:38:31;16.90;99.90
21473;DHT22;10898;48.072;11.682;2023-06-24T03:40:33;16.90;99.90
21473;DHT22;10898;48.072;11.682;2023-06-24T03:42:35;16.80;99.90
21473;DHT22;10898;48.072;11.682;2023-06-24T03:44:37;16.80;99.90
21473;DHT22;10898;48.072;11.682;2023-06-24T03:46:39;16.80;99.90
21473;DHT22;10898;48.072;11.682;2023-06-24T03:48:41;16.80;99.90
21473;DHT22;10898;48.072;11.682;2023-06-24T03:50:42;16.80;99.90
21473;DHT22;10898;48.072;11.682;2023-06-24T03:52:44;16.80;99.90
21473;DHT22;10898;48.072;11.682;2023-06-24T03:54:46;16.70;99.90
21473;DHT22;10898;48.072;11.682;2023-06-24T03:56:48;16.70;99.90
21473;DHT22;10898;48.072;11.682;2023-06-24T03:58:49;16.70;99.90
21473;DHT22;10898;48.072;11.682;2023-06-24T04:00:51;16.80;99.90
21473;DHT22;10898;48.072;11.682;2023-06-24T04:02:53;16.70;99.90
21473;DHT22;10898;48.072;11.682;2023-06-24T04:04:55;16.80;99.90
21473;DHT22;10898;48.072;11.682;2023-06-24T04:06:57;16.80;99.90
21473;DHT22;10898;48.072;11.682;2023-06-24T04:08:59;16.80;99.90
21473;DHT22;10898;48.072;11.682;2023-06-24T04:11:01;16.80;99.90
21473;DHT22;10898;48.072;11.682;2023-06-24T04:13:04;16.80;99.90
21473;DHT22;10898;48.072;11.682;2023-06-24T04:15:06;16.80;99.90
21473;DHT22;10898;48.072;11.682;2023-06-24T04:17:09;16.70;99.90
21473;DHT22;10898;48.072;11.682;2023-06-24T04:19:10;16.70;99.90
21473;DHT22;10898;48.072;11.682;2023-06-24T04:21:12;16.80;99.90
21473;DHT22;10898;48.072;11.682;2023-06-24T04:23:16;16.80;99.90
21473;DHT22;10898;48.072;11.682;2023-06-24T04:25:17;16.80;99.90
21473;DHT22;10898;48.072;11.682;2023-06-24T04:27:19;16.80;99.90
21473;DHT22;10898;48.072;11.682;2023-06-24T04:29:21;16.80;99.90
21473;DHT22;10898;48.072;11.682;2023-06-24T04:31:22;16.80;99.90
21473;DHT22;10898;48.072;11.682;2023-06-24T04:33:24;16.90;99.90
21473;DHT22;10898;48.072;11.682;2023-06-24T04:35:26;16.90;99.90
21473;DHT22;10898;48.072;11.682;2023-06-24T04:37:28;16.90;99.90
21473;DHT22;10898;48.072;11.682;2023-06-24T04:39:46;17.00;99.90
21473;DHT22;10898;48.072;11.682;2023-06-24T04:41:49;17.00;99.90
21473;DHT22;10898;48.072;11.682;2023-06-24T04:43:50;17.10;99.90
21473;DHT22;10898;48.072;11.682;2023-06-24T04:45:52;17.10;99.90
21473;DHT22;10898;48.072;11.682;2023-06-24T04:47:56;17.10;99.90
21473;DHT22;10898;48.072;11.682;2023-06-24T04:49:58;17.10;99.90
21473;DHT22;10898;48.072;11.682;2023-06-24T04:52:00;17.10;99.90
21473;DHT22;10898;48.072;11.682;2023-06-24T04:54:02;17.20;99.90
21473;DHT22;10898;48.072;11.682;2023-06-24T04:56:05;17.20;99.90
21473;DHT22;10898;48.072;11.682;2023-06-24T04:58:06;17.20;99.90
21473;DHT22;10898;48.072;11.682;2023-06-24T05:00:08;17.20;99.90
21473;DHT22;10898;48.072;11.682;2023-06-24T05:02:10;17.30;99.90
21473;DHT22;10898;48.072;11.682;2023-06-24T05:04:12;17.30;99.90
21473;DHT22;10898;48.072;11.682;2023-06-24T05:06:13;17.30;99.90
21473;DHT22;10898;48.072;11.682;2023-06-24T05:08:15;17.30;99.90
21473;DHT22;10898;48.072;11.682;2023-06-24T05:10:17;17.40;99.90
21473;DHT22;10898;48.072;11.682;2023-06-24T05:12:18;17.40;99.90
21473;DHT22;10898;48.072;11.682;2023-06-24T05:14:20;17.40;99.90
21473;DHT22;10898;48.072;11.682;2023-06-24T05:16:22;17.50;99.90
21473;DHT22;10898;48.072;11.682;2023-06-24T05:18:25;17.50;99.90
21473;DHT22;10898;48.072;11.682;2023-06-24T05:20:27;17.50;99.90
21473;DHT22;10898;48.072;11.682;2023-06-24T05:22:29;17.50;99.90
21473;DHT22;10898;48.072;11.682;2023-06-24T05:24:31;17.40;99.90
21473;DHT22;10898;48.072;11.682;2023-06-24T05:26:33;17.40;99.90
21473;DHT22;10898;48.072;11.682;2023-06-24T05:28:35;17.40;99.90
21473;DHT22;10898;48.072;11.682;2023-06-24T05:30:36;17.40;99.90
21473;DHT22;10898;48.072;11.682;2023-06-24T05:32:38;17.40;99.90
21473;DHT22;10898;48.072;11.682;2023-06-24T05:34:40;17.50;99.90
21473;DHT22;10898;48.072;11.682;2023-06-24T05:36:42;17.50;99.90
21473;DHT22;10898;48.072;11.682;2023-06-24T05:38:44;17.60;99.90
21473;DHT22;10898;48.072;11.682;2023-06-24T05:40:46;17.60;99.90
21473;DHT22;10898;48.072;11.682;2023-06-24T05:42:47;17.70;99.90
21473;DHT22;10898;48.072;11.682;2023-06-24T05:44:49;17.80;99.90
21473;DHT22;10898;48.072;11.682;2023-06-24T05:46:51;17.80;99.90
21473;DHT22;10898;48.072;11.682;2023-06-24T05:48:53;17.90;99.90
21473;DHT22;10898;48.072;11.682;2023-06-24T05:50:55;17.90;99.90
21473;DHT22;10898;48.072;11.682;2023-06-24T05:52:57;17.90;99.90
21473;DHT22;10898;48.072;11.682;2023-06-24T05:54:59;17.90;99.90
21473;DHT22;10898;48.072;11.682;2023-06-24T05:57:00;17.90;99.90
21473;DHT22;10898;48.072;11.682;2023-06-24T05:59:02;17.90;99.90
21473;DHT22;10898;48.072;11.682;2023-06-24T06:01:04;18.00;99.90
21473;DHT22;10898;48.072;11.682;2023-06-24T06:03:06;18.00;99.90
21473;DHT22;10898;48.072;11.682;2023-06-24T06:05:08;18.00;99.90
21473;DHT22;10898;48.072;11.682;2023-06-24T06:07:09;18.10;99.90
21473;DHT22;10898;48.072;11.682;2023-06-24T06:09:11;18.10;99.90
21473;DHT22;10898;48.072;11.682;2023-06-24T06:11:13;18.10;99.90
21473;DHT22;10898;48.072;11.682;2023-06-24T06:13:15;18.20;99.90
21473;DHT22;10898;48.072;11.682;2023-06-24T06:15:17;18.30;99.90
21473;DHT22;10898;48.072;11.682;2023-06-24T06:17:18;18.40;99.90
21473;DHT22;10898;48.072;11.682;2023-06-24T06:19:20;18.40;99.90
21473;DHT22;10898;48.072;11.682;2023-06-24T06:21:22;18.40;99.90
21473;DHT22;10898;48.072;11.682;2023-06-24T06:23:24;18.40;99.90
21473;DHT22;10898;48.072;11.682;2023-06-24T06:25:26;18.50;99.90
21473;DHT22;10898;48.072;11.682;2023-06-24T06:27:28;18.60;99.90
21473;DHT22;10898;48.072;11.682;2023-06-24T06:29:30;18.60;99.90
21473;DHT22;10898;48.072;11.682;2023-06-24T06:31:32;18.70;99.90
21473;DHT22;10898;48.072;11.682;2023-06-24T06:33:34;18.80;99.90
21473;DHT22;10898;48.072;11.682;2023-06-24T06:35:35;18.90;99.90
21473;DHT22;10898;48.072;11.682;2023-06-24T06:37:37;18.90;99.90
21473;DHT22;10898;48.072;11.682;2023-06-24T06:39:39;18.90;99.90
21473;DHT22;10898;48.072;11.682;2023-06-24T06:41:41;18.90;99.90
21473;DHT22;10898;48.072;11.682;2023-06-24T06:43:42;19.00;99.90
21473;DHT22;10898;48.072;11.682;2023-06-24T06:45:44;19.10;99.90
21473;DHT22;10898;48.072;11.682;2023-06-24T06:47:47;19.10;99.90
21473;DHT22;10898;48.072;11.682;2023-06-24T06:49:49;19.20;99.90
21473;DHT22;10898;48.072;11.682;2023-06-24T06:51:53;19.20;99.90
21473;DHT22;10898;48.072;11.682;2023-06-24T06:53:55;19.20;99.90
21473;DHT22;10898;48.072;11.682;2023-06-24T06:55:56;19.20;99.90
21473;DHT22;10898;48.072;11.682;2023-06-24T06:58:00;19.20;99.90
21473;DHT22;10898;48.072;11.682;2023-06-24T07:00:02;19.30;99.90
21473;DHT22;10898;48.072;11.682;2023-06-24T07:02:04;19.30;99.90
21473;DHT22;10898;48.072;11.682;2023-06-24T07:04:06;19.30;99.90
21473;DHT22;10898;48.072;11.682;2023-06-24T07:06:08;19.30;99.90
21473;DHT22;10898;48.072;11.682;2023-06-24T07:08:10;19.40;99.90
21473;DHT22;10898;48.072;11.682;2023-06-24T07:10:11;19.40;99.90
21473;DHT22;10898;48.072;11.682;2023-06-24T07:12:14;19.50;99.90
21473;DHT22;10898;48.072;11.682;2023-06-24T07:14:15;19.50;99.90
21473;DHT22;10898;48.072;11.682;2023-06-24T07:16:17;19.50;99.90
21473;DHT22;10898;48.072;11.682;2023-06-24T07:18:19;19.50;99.90
21473;DHT22;10898;48.072;11.682;2023-06-24T07:20:21;19.50;99.90
21473;DHT22;10898;48.072;11.682;2023-06-24T07:22:23;19.60;99.90
21473;DHT22;10898;48.072;11.682;2023-06-24T07:24:25;19.70;99.90
21473;DHT22;10898;48.072;11.682;2023-06-24T07:26:27;19.70;99.90
21473;DHT22;10898;48.072;11.682;2023-06-24T07:28:30;19.80;99.90
21473;DHT22;10898;48.072;11.682;2023-06-24T07:30:31;19.80;99.90
21473;DHT22;10898;48.072;11.682;2023-06-24T07:32:33;19.90;99.90
21473;DHT22;10898;48.072;11.682;2023-06-24T07:34:35;19.90;99.90
21473;DHT22;10898;48.072;11.682;2023-06-24T07:36:37;20.00;99.90
21473;DHT22;10898;48.072;11.682;2023-06-24T07:38:38;20.10;99.90
21473;DHT22;10898;48.072;11.682;2023-06-24T07:40:40;20.10;99.90
21473;DHT22;10898;48.072;11.682;2023-06-24T07:42:42;20.20;99.90
21473;DHT22;10898;48.072;11.682;2023-06-24T07:44:47;20.20;99.90
21473;DHT22;10898;48.072;11.682;2023-06-24T07:46:49;20.20;99.90
21473;DHT22;10898;48.072;11.682;2023-06-24T07:48:52;20.20;99.90
21473;DHT22;10898;48.072;11.682;2023-06-24T07:50:54;20.20;99.90
21473;DHT22;10898;48.072;11.682;2023-06-24T07:52:56;20.30;99.90
21473;DHT22;10898;48.072;11.682;2023-06-24T07:54:58;20.50;99.90
21473;DHT22;10898;48.072;11.682;2023-06-24T07:57:00;20.50;99.40
21473;DHT22;10898;48.072;11.682;2023-06-24T07:59:01;20.60;99.40
21473;DHT22;10898;48.072;11.682;2023-06-24T08:01:03;20.60;98.90
21473;DHT22;10898;48.072;11.682;2023-06-24T08:03:05;20.70;97.30
21473;DHT22;10898;48.072;11.682;2023-06-24T08:05:07;20.70;99.00
21473;DHT22;10898;48.072;11.682;2023-06-24T08:07:10;20.80;99.60
21473;DHT22;10898;48.072;11.682;2023-06-24T08:09:12;20.90;98.20
21473;DHT22;10898;48.072;11.682;2023-06-24T08:11:14;20.90;98.30
21473;DHT22;10898;48.072;11.682;2023-06-24T08:13:16;21.00;97.80
21473;DHT22;10898;48.072;11.682;2023-06-24T08:15:18;21.00;98.60
21473;DHT22;10898;48.072;11.682;2023-06-24T08:17:19;21.10;97.80
21473;DHT22;10898;48.072;11.682;2023-06-24T08:19:21;21.20;98.20
21473;DHT22;10898;48.072;11.682;2023-06-24T08:21:23;21.20;97.40
21473;DHT22;10898;48.072;11.682;2023-06-24T08:23:24;21.20;97.10
21473;DHT22;10898;48.072;11.682;2023-06-24T08:25:26;21.30;97.40
21473;DHT22;10898;48.072;11.682;2023-06-24T08:27:28;21.30;97.40
21473;DHT22;10898;48.072;11.682;2023-06-24T08:29:30;21.30;96.90
21473;DHT22;10898;48.072;11.682;2023-06-24T08:31:32;21.30;95.80
21473;DHT22;10898;48.072;11.682;2023-06-24T08:33:33;21.30;96.70
21473;DHT22;10898;48.072;11.682;2023-06-24T08:35:35;21.30;96.10
21473;DHT22;10898;48.072;11.682;2023-06-24T08:37:37;21.30;96.40
21473;DHT22;10898;48.072;11.682;2023-06-24T08:39:39;21.30;96.40
21473;DHT22;10898;48.072;11.682;2023-06-24T08:41:43;21.40;96.50
21473;DHT22;10898;48.072;11.682;2023-06-24T08:43:45;21.40;95.90
21473;DHT22;10898;48.072;11.682;2023-06-24T08:45:47;21.50;95.90
21473;DHT22;10898;48.072;11.682;2023-06-24T08:47:49;21.50;95.30
21473;DHT22;10898;48.072;11.682;2023-06-24T08:50:25;21.50;95.20
21473;DHT22;10898;48.072;11.682;2023-06-24T08:52:19;21.60;95.90
21473;DHT22;10898;48.072;11.682;2023-06-24T08:54:22;21.70;94.80
21473;DHT22;10898;48.072;11.682;2023-06-24T08:56:24;21.80;93.80
21473;DHT22;10898;48.072;11.682;2023-06-24T08:58:26;21.80;94.40
21473;DHT22;10898;48.072;11.682;2023-06-24T09:00:28;21.90;94.40
21473;DHT22;10898;48.072;11.682;2023-06-24T09:02:30;21.90;93.60
21473;DHT22;10898;48.072;11.682;2023-06-24T09:04:34;22.00;94.00
21473;DHT22;10898;48.072;11.682;2023-06-24T09:06:36;22.20;94.70
21473;DHT22;10898;48.072;11.682;2023-06-24T09:08:38;22.30;93.30
21473;DHT22;10898;48.072;11.682;2023-06-24T09:10:41;22.40;93.60
21473;DHT22;10898;48.072;11.682;2023-06-24T09:12:43;22.50;93.50
21473;DHT22;10898;48.072;11.682;2023-06-24T09:14:47;22.70;92.90
21473;DHT22;10898;48.072;11.682;2023-06-24T09:17:00;22.80;91.30
21473;DHT22;10898;48.072;11.682;2023-06-24T09:19:07;22.80;91.30
21473;DHT22;10898;48.072;11.682;2023-06-24T09:21:10;22.80;90.90
21473;DHT22;10898;48.072;11.682;2023-06-24T09:23:12;22.80;91.90
21473;DHT22;10898;48.072;11.682;2023-06-24T09:25:20;22.80;91.50
21473;DHT22;10898;48.072;11.682;2023-06-24T09:27:21;22.80;91.50
21473;DHT22;10898;48.072;11.682;2023-06-24T09:29:29;22.90;90.40
21473;DHT22;10898;48.072;11.682;2023-06-24T09:31:33;22.90;90.90
21473;DHT22;10898;48.072;11.682;2023-06-24T09:33:35;23.00;90.20
21473;DHT22;10898;48.072;11.682;2023-06-24T09:35:37;23.10;91.80
21473;DHT22;10898;48.072;11.682;2023-06-24T09:37:39;23.10;91.30
21473;DHT22;10898;48.072;11.682;2023-06-24T09:39:40;23.20;91.70
21473;DHT22;10898;48.072;11.682;2023-06-24T09:41:45;23.30;91.60
21473;DHT22;10898;48.072;11.682;2023-06-24T09:43:50;23.20;90.00
21473;DHT22;10898;48.072;11.682;2023-06-24T09:45:52;23.10;90.30
21473;DHT22;10898;48.072;11.682;2023-06-24T09:47:54;23.20;90.50
21473;DHT22;10898;48.072;11.682;2023-06-24T09:49:56;23.20;89.60
21473;DHT22;10898;48.072;11.682;2023-06-24T09:51:58;23.20;87.00
21473;DHT22;10898;48.072;11.682;2023-06-24T09:54:01;23.20;89.50
21473;DHT22;10898;48.072;11.682;2023-06-24T09:56:04;23.30;90.40
21473;DHT22;10898;48.072;11.682;2023-06-24T09:58:05;23.30;87.30
21473;DHT22;10898;48.072;11.682;2023-06-24T10:00:07;23.30;88.80
21473;DHT22;10898;48.072;11.682;2023-06-24T10:02:11;23.30;88.00
21473;DHT22;10898;48.072;11.682;2023-06-24T10:04:16;23.40;86.70
21473;DHT22;10898;48.072;11.682;2023-06-24T10:06:18;23.40;86.60
21473;DHT22;10898;48.072;11.682;2023-06-24T10:08:19;23.50;87.30
21473;DHT22;10898;48.072;11.682;2023-06-24T10:10:21;23.50;87.10
21473;DHT22;10898;48.072;11.682;2023-06-24T10:12:23;23.50;83.10
21473;DHT22;10898;48.072;11.682;2023-06-24T10:14:28;23.40;84.90
21473;DHT22;10898;48.072;11.682;2023-06-24T10:16:29;23.30;83.50
21473;DHT22;10898;48.072;11.682;2023-06-24T10:18:35;23.20;82.60
21473;DHT22;10898;48.072;11.682;2023-06-24T10:20:37;23.20;83.60
21473;DHT22;10898;48.072;11.682;2023-06-24T10:22:40;23.10;82.40
21473;DHT22;10898;48.072;11.682;2023-06-24T10:24:47;23.00;80.70
21473;DHT22;10898;48.072;11.682;2023-06-24T10:26:48;22.90;81.10
21473;DHT22;10898;48.072;11.682;2023-06-24T10:31:07;22.90;82.20
21473;DHT22;10898;48.072;11.682;2023-06-24T10:33:09;23.00;81.30
21473;DHT22;10898;48.072;11.682;2023-06-24T10:35:21;23.10;81.50
21473;DHT22;10898;48.072;11.682;2023-06-24T10:37:24;23.30;82.60
21473;DHT22;10898;48.072;11.682;2023-06-24T10:40:00;23.40;81.30
21473;DHT22;10898;48.072;11.682;2023-06-24T10:41:55;23.50;80.10
21473;DHT22;10898;48.072;11.682;2023-06-24T10:43:57;23.70;80.90
21473;DHT22;10898;48.072;11.682;2023-06-24T10:45:59;23.90;80.90
21473;DHT22;10898;48.072;11.682;2023-06-24T10:48:01;24.00;81.40
21473;DHT22;10898;48.072;11.682;2023-06-24T10:50:03;24.20;77.80
21473;DHT22;10898;48.072;11.682;2023-06-24T10:52:07;24.20;73.80
21473;DHT22;10898;48.072;11.682;2023-06-24T10:54:11;24.30;77.00
21473;DHT22;10898;48.072;11.682;2023-06-24T10:56:13;24.30;74.90
21473;DHT22;10898;48.072;11.682;2023-06-24T10:58:15;24.30;77.70
21473;DHT22;10898;48.072;11.682;2023-06-24T11:00:17;24.40;78.50
21473;DHT22;10898;48.072;11.682;2023-06-24T11:02:20;24.50;77.30
21473;DHT22;10898;48.072;11.682;2023-06-24T11:04:22;24.40;76.60
21473;DHT22;10898;48.072;11.682;2023-06-24T11:06:24;24.40;74.20
21473;DHT22;10898;48.072;11.682;2023-06-24T11:08:25;24.40;76.60
21473;DHT22;10898;48.072;11.682;2023-06-24T11:10:27;24.40;76.10
21473;DHT22;10898;48.072;11.682;2023-06-24T11:12:35;24.50;76.30
21473;DHT22;10898;48.072;11.682;2023-06-24T11:14:38;24.50;75.40
21473;DHT22;10898;48.072;11.682;2023-06-24T11:16:40;24.60;74.00
21473;DHT22;10898;48.072;11.682;2023-06-24T11:18:42;24.60;74.60
21473;DHT22;10898;48.072;11.682;2023-06-24T11:20:44;24.60;73.90
21473;DHT22;10898;48.072;11.682;2023-06-24T11:22:45;24.60;74.30
21473;DHT22;10898;48.072;11.682;2023-06-24T11:24:47;24.50;73.70
21473;DHT22;10898;48.072;11.682;2023-06-24T11:26:49;24.40;73.80
21473;DHT22;10898;48.072;11.682;2023-06-24T11:28:52;24.40;72.70
21473;DHT22;10898;48.072;11.682;2023-06-24T11:30:54;24.30;73.20
21473;DHT22;10898;48.072;11.682;2023-06-24T11:32:56;24.20;73.30
21473;DHT22;10898;48.072;11.682;2023-06-24T11:34:58;24.20;75.00
21473;DHT22;10898;48.072;11.682;2023-06-24T11:37:09;24.20;73.40
21473;DHT22;10898;48.072;11.682;2023-06-24T11:39:21;24.20;74.50
21473;DHT22;10898;48.072;11.682;2023-06-24T11:41:23;24.10;74.00
21473;DHT22;10898;48.072;11.682;2023-06-24T11:43:27;24.10;71.60
21473;DHT22;10898;48.072;11.682;2023-06-24T11:45:29;24.10;72.60
21473;DHT22;10898;48.072;11.682;2023-06-24T11:47:33;24.20;72.00
21473;DHT22;10898;48.072;11.682;2023-06-24T11:49:48;24.30;71.20
21473;DHT22;10898;48.072;11.682;2023-06-24T11:51:50;24.40;71.00
21473;DHT22;10898;48.072;11.682;2023-06-24T11:53:52;24.40;70.50
21473;DHT22;10898;48.072;11.682;2023-06-24T11:55:55;24.40;72.60
21473;DHT22;10898;48.072;11.682;2023-06-24T11:59:59;24.40;71.50
21473;DHT22;10898;48.072;11.682;2023-06-24T12:02:01;24.40;71.20
21473;DHT22;10898;48.072;11.682;2023-06-24T12:04:14;24.40;70.50
21473;DHT22;10898;48.072;11.682;2023-06-24T12:06:16;24.60;73.30
21473;DHT22;10898;48.072;11.682;2023-06-24T12:08:18;24.70;70.50
21473;DHT22;10898;48.072;11.682;2023-06-24T12:10:20;24.80;69.10
21473;DHT22;10898;48.072;11.682;2023-06-24T12:12:21;25.00;72.00
21473;DHT22;10898;48.072;11.682;2023-06-24T12:14:23;25.10;69.10
21473;DHT22;10898;48.072;11.682;2023-06-24T12:16:25;25.20;69.50
21473;DHT22;10898;48.072;11.682;2023-06-24T12:18:27;25.30;68.60
21473;DHT22;10898;48.072;11.682;2023-06-24T12:20:29;25.30;68.10
21473;DHT22;10898;48.072;11.682;2023-06-24T12:22:35;25.30;66.50
21473;DHT22;10898;48.072;11.682;2023-06-24T12:24:37;25.20;64.50
21473;DHT22;10898;48.072;11.682;2023-06-24T12:26:39;25.10;67.00
21473;DHT22;10898;48.072;11.682;2023-06-24T12:28:41;25.00;67.10
21473;DHT22;10898;48.072;11.682;2023-06-24T12:30:43;25.00;67.30
21473;DHT22;10898;48.072;11.682;2023-06-24T12:32:44;24.90;68.00
21473;DHT22;10898;48.072;11.682;2023-06-24T12:34:46;25.00;67.90
21473;DHT22;10898;48.072;11.682;2023-06-24T12:36:48;25.00;69.60
21473;DHT22;10898;48.072;11.682;2023-06-24T12:38:50;25.20;67.70
21473;DHT22;10898;48.072;11.682;2023-06-24T12:40:51;25.30;67.80
21473;DHT22;10898;48.072;11.682;2023-06-24T12:42:54;25.30;68.00
21473;DHT22;10898;48.072;11.682;2023-06-24T12:44:55;25.40;68.50
21473;DHT22;10898;48.072;11.682;2023-06-24T12:46:57;25.50;69.80
21473;DHT22;10898;48.072;11.682;2023-06-24T12:48:59;25.70;66.50
21473;DHT22;10898;48.072;11.682;2023-06-24T12:51:01;25.60;64.00
21473;DHT22;10898;48.072;11.682;2023-06-24T12:53:03;25.60;63.40
21473;DHT22;10898;48.072;11.682;2023-06-24T12:55:05;25.40;63.00
21473;DHT22;10898;48.072;11.682;2023-06-24T12:57:08;25.40;67.50
21473;DHT22;10898;48.072;11.682;2023-06-24T12:59:15;25.30;66.80